Time;durP1;ratioP1;P1;durP2;ratioP2;P2;SDS_P1;SDS_P2;PMS_P1;PMS_P2;Temp;Humidity;BMP_temperature;BMP_pressure;BME280_temperature;BME280_humidity;BME280_pressure;Samples;Min_cycle;Max_cycle;Signal;HPM_P1;HPM_P2
2021/06/14 00:00:42;;;;;;;10.55;3.25;;;15.70;99.90;;;16.42;65.74;102039.44;5081923;28;20218;-65
2021/06/14 00:03:08;;;;;;;10.38;3.85;;;15.70;99.90;;;16.38;66.00;102036.06;5094335;28;20203;-64
2021/06/14 00:05:39;;;;;;;11.57;3.70;;;15.70;99.90;;;16.37;65.83;102029.06;5075032;28;20210;-65
2021/06/14 00:08:09;;;;;;;12.30;3.00;;;15.70;99.90;;;16.34;66.02;102034.50;5074951;28;20203;-65
2021/06/14 00:10:38;;;;;;;12.60;3.88;;;15.70;99.90;;;16.31;66.02;102024.00;5074737;28;20192;-65
2021/06/14 00:13:07;;;;;;;10.27;3.63;;;15.70;99.90;;;16.31;65.99;102024.00;5093143;28;20186;-65
2021/06/14 00:15:35;;;;;;;12.25;4.10;;;15.70;99.90;;;16.29;66.06;102025.88;5092890;28;20187;-65
2021/06/14 00:18:05;;;;;;;10.93;3.50;;;15.60;99.90;;;16.26;66.31;102032.13;5093103;28;20199;-66
2021/06/14 00:20:32;;;;;;;10.48;3.40;;;15.60;99.90;;;16.24;66.46;102031.31;5091642;28;20192;-65
2021/06/14 00:22:59;;;;;;;11.73;3.75;;;15.60;99.90;;;16.22;66.57;102021.75;5091513;28;20198;-66
2021/06/14 00:25:29;;;;;;;12.00;3.63;;;15.60;99.90;;;16.21;66.76;102022.66;5092761;28;20191;-65
2021/06/14 00:27:57;;;;;;;13.60;4.32;;;15.50;99.90;;;16.20;67.07;102018.31;5093192;28;20560;-65
2021/06/14 00:30:28;;;;;;;15.48;3.78;;;15.50;99.90;;;16.19;67.19;102024.53;5095284;28;20236;-66
2021/06/14 00:32:55;;;;;;;10.93;3.65;;;15.50;99.90;;;16.17;67.28;102021.09;5095847;28;20199;-65
2021/06/14 00:35:22;;;;;;;13.20;3.55;;;15.50;99.90;;;16.15;67.19;102012.34;5093890;28;20190;-65
2021/06/14 00:37:49;;;;;;;11.57;3.38;;;15.50;99.90;;;16.13;67.43;102017.69;5094386;28;20230;-65
2021/06/14 00:40:16;;;;;;;13.07;3.55;;;15.50;99.90;;;16.13;67.38;102014.19;5095486;28;20184;-64
2021/06/14 00:42:44;;;;;;;12.57;3.70;;;15.40;99.90;;;16.13;67.62;102014.19;5095048;28;20199;-65
2021/06/14 00:45:16;;;;;;;12.77;3.53;;;15.50;99.90;;;16.13;67.60;102016.81;5092943;28;20211;-65
2021/06/14 00:47:44;;;;;;;13.63;4.57;;;15.50;99.90;;;16.11;67.54;102001.03;5092548;28;20206;-65
2021/06/14 00:50:19;;;;;;;11.98;3.53;;;15.50;99.90;;;16.11;67.46;102001.03;5074633;28;20252;-66
2021/06/14 00:52:46;;;;;;;11.00;3.42;;;15.50;99.90;;;16.11;67.65;102005.44;5092991;28;20183;-66
2021/06/14 00:55:17;;;;;;;13.77;4.55;;;15.40;99.90;;;16.10;67.45;102006.38;5092852;28;20194;-66
2021/06/14 00:57:44;;;;;;;14.77;3.92;;;15.40;99.90;;;16.08;67.78;102010.88;5074165;28;20389;-65
2021/06/14 01:00:16;;;;;;;12.50;3.65;;;15.40;99.90;;;16.07;67.82;102009.16;5093616;28;20203;-64
2021/06/14 01:02:51;;;;;;;12.85;4.30;;;15.40;99.90;;;16.07;67.68;102011.78;5102761;28;20681;-64
2021/06/14 01:05:19;;;;;;;9.80;3.47;;;15.40;99.90;;;16.05;67.80;102008.34;5092067;28;20816;-65
2021/06/14 01:07:46;;;;;;;11.50;3.88;;;15.40;99.90;;;16.02;67.72;102006.72;5090748;28;20215;-64
2021/06/14 01:10:16;;;;;;;11.38;4.00;;;15.40;99.90;;;16.02;67.78;102012.00;5092080;28;20176;-67
2021/06/14 01:13:06;;;;;;;14.43;3.90;;;15.40;99.90;;;16.01;67.84;102001.44;5073973;28;20202;-65
2021/06/14 01:15:50;;;;;;;12.25;3.72;;;15.40;99.90;;;16.01;68.04;101998.81;5090402;28;20256;-64
2021/06/14 01:18:29;;;;;;;11.48;4.07;;;15.30;99.90;;;16.00;67.90;102002.38;5092206;28;20206;-65
2021/06/14 01:21:12;;;;;;;11.57;3.50;;;15.30;99.90;;;15.99;67.99;101998.88;5073750;28;20197;-65
2021/06/14 01:24:31;;;;;;;9.98;3.50;;;15.30;99.90;;;15.97;68.02;101992.81;5092144;28;20198;-65
2021/06/14 01:27:04;;;;;;;10.77;3.70;;;15.30;99.90;;;15.96;68.14;101999.00;5086302;28;20650;-64
2021/06/14 01:29:39;;;;;;;11.55;3.80;;;15.30;99.90;;;15.94;68.07;101995.56;5090604;28;20194;-65
2021/06/14 01:32:09;;;;;;;8.30;3.35;;;15.30;99.90;;;15.92;68.26;101994.78;5097784;28;20652;-64
2021/06/14 01:34:41;;;;;;;9.85;3.35;;;15.30;99.90;;;15.93;68.33;101992.97;5097173;28;20652;-64
2021/06/14 01:37:10;;;;;;;11.10;4.18;;;15.20;99.90;;;15.91;68.68;101993.03;5092659;28;20294;-65
2021/06/14 01:39:44;;;;;;;13.50;3.50;;;15.20;99.90;;;15.90;68.55;101985.19;5074460;28;20187;-64
2021/06/14 01:42:13;;;;;;;10.25;3.47;;;15.20;99.90;;;15.88;68.64;101976.44;5075994;28;20191;-64
2021/06/14 01:44:47;;;;;;;12.63;3.38;;;15.20;99.90;;;15.87;68.82;101975.63;5074067;28;20214;-64
2021/06/14 01:47:16;;;;;;;10.65;3.55;;;15.20;99.90;;;15.86;68.97;101980.94;5073452;28;20203;-65
2021/06/14 01:49:44;;;;;;;11.57;3.42;;;15.10;99.90;;;15.85;68.75;101981.84;5094597;28;20179;-66
2021/06/14 01:52:24;;;;;;;12.50;4.28;;;15.20;99.90;;;15.84;68.99;101977.50;5077433;28;20193;-65
2021/06/14 01:54:55;;;;;;;10.73;3.38;;;15.10;99.90;;;15.82;68.97;101976.69;5095691;28;20183;-64
2021/06/14 01:57:42;;;;;;;10.57;3.38;;;15.20;99.90;;;15.82;68.94;101974.06;5077115;28;20582;-65
2021/06/14 02:00:25;;;;;;;13.95;3.95;;;15.10;99.90;;;15.81;69.05;101972.31;5077162;28;20219;-65
2021/06/14 02:03:16;;;;;;;11.07;3.70;;;15.10;99.90;;;15.80;68.98;101967.97;5081072;28;20187;-65
2021/06/14 02:05:51;;;;;;;11.73;3.58;;;15.10;99.90;;;15.80;68.95;101967.97;5085721;28;20222;-65
2021/06/14 02:08:21;;;;;;;11.20;3.90;;;15.10;99.90;;;15.78;68.79;101973.31;5107679;28;20205;-65
2021/06/14 02:10:50;;;;;;;11.50;3.45;;;15.10;99.90;;;15.77;69.07;101978.66;5097776;28;20622;-65
2021/06/14 02:13:20;;;;;;;12.02;3.83;;;15.10;99.90;;;15.73;68.86;101970.00;5115680;28;20178;-65
2021/06/14 02:15:48;;;;;;;12.50;4.00;;;15.10;99.90;;;15.71;69.39;101970.97;5115415;28;20206;-65
2021/06/14 02:18:22;;;;;;;12.30;3.60;;;15.10;99.90;;;15.70;69.15;101975.41;5097412;28;20270;-65
2021/06/14 02:20:51;;;;;;;11.32;3.78;;;15.00;99.90;;;15.69;69.20;101970.19;5097099;28;20197;-66
2021/06/14 02:23:18;;;;;;;11.45;3.65;;;15.00;99.90;;;15.68;69.30;101971.09;5115379;28;20191;-64
2021/06/14 02:25:44;;;;;;;9.90;3.58;;;15.00;99.90;;;15.67;69.02;101975.53;5097167;28;20211;-64
2021/06/14 02:28:12;;;;;;;12.35;3.75;;;15.00;99.90;;;15.64;69.21;101970.34;5097336;28;20563;-64
2021/06/14 02:30:39;;;;;;;14.27;4.45;;;15.00;99.90;;;15.63;69.39;101971.25;5115000;28;20186;-65
2021/06/14 02:33:09;;;;;;;12.82;4.18;;;15.00;99.90;;;15.61;69.58;101967.81;5114085;28;20244;-64
2021/06/14 02:35:39;;;;;;;14.75;3.97;;;15.00;99.90;;;15.60;69.88;101967.88;5099072;28;20195;-64
2021/06/14 02:38:08;;;;;;;11.50;4.10;;;14.90;99.90;;;15.61;69.99;101965.19;5096097;28;20184;-65
2021/06/14 02:40:42;;;;;;;15.75;4.82;;;14.90;99.90;;;15.62;69.74;101968.69;5093299;28;20197;-65
2021/06/14 02:43:11;;;;;;;12.70;4.28;;;14.90;99.90;;;15.61;69.95;101961.66;5094403;28;20195;-65
2021/06/14 02:45:42;;;;;;;14.45;4.30;;;14.90;99.90;;;15.57;70.12;101960.97;5094642;28;20675;-65
2021/06/14 02:48:19;;;;;;;12.63;4.40;;;14.90;99.90;;;15.56;70.00;101953.94;5076375;28;20256;-65
2021/06/14 02:50:47;;;;;;;13.45;4.28;;;14.90;99.90;;;15.55;70.10;101957.50;5094176;28;20179;-64
2021/06/14 02:53:15;;;;;;;11.90;3.83;;;14.80;99.90;;;15.52;70.40;101947.06;5076390;28;20705;-65
2021/06/14 02:55:55;;;;;;;15.15;4.30;;;14.80;99.90;;;15.52;70.35;101943.56;5076161;28;20191;-65
2021/06/14 02:58:32;;;;;;;12.23;4.40;;;14.80;99.90;;;15.53;70.57;101945.28;5076507;28;20281;-65
2021/06/14 03:01:00;;;;;;;13.45;4.10;;;14.80;99.90;;;15.50;70.31;101941.00;5092443;28;20195;-66
2021/06/14 03:03:30;;;;;;;14.35;4.55;;;14.80;99.90;;;15.51;70.49;101949.75;5094564;28;20193;-65
2021/06/14 03:05:58;;;;;;;14.10;5.10;;;14.80;99.90;;;15.50;70.62;101938.34;5096835;28;20226;-65
2021/06/14 03:08:28;;;;;;;13.88;4.63;;;14.80;99.90;;;15.49;70.66;101949.81;5085837;28;20252;-64
2021/06/14 03:10:56;;;;;;;14.13;4.25;;;14.80;99.90;;;15.49;70.93;101951.59;5075812;28;20183;-65
2021/06/14 03:13:23;;;;;;;11.52;3.92;;;14.80;99.90;;;15.47;71.20;101948.16;5075805;28;20237;-65
2021/06/14 03:15:50;;;;;;;12.40;4.85;;;14.90;99.90;;;15.49;71.02;101948.97;5093576;28;20541;-65
2021/06/14 03:18:25;;;;;;;12.48;4.40;;;14.80;99.90;;;15.50;71.16;101948.03;5093851;28;20172;-66
2021/06/14 03:20:56;;;;;;;14.38;4.57;;;14.80;99.90;;;15.48;71.03;101942.81;5075331;28;20667;-65
2021/06/14 03:23:23;;;;;;;11.48;4.18;;;14.80;99.90;;;15.49;70.73;101941.06;5075684;28;20674;-66
2021/06/14 03:25:52;;;;;;;12.90;4.35;;;14.90;99.90;;;15.49;71.10;101941.06;5093535;28;20207;-65
2021/06/14 03:28:21;;;;;;;13.45;4.35;;;14.90;99.90;;;15.50;71.08;101934.84;5094102;28;20554;-66
2021/06/14 03:30:50;;;;;;;11.32;4.35;;;14.90;99.90;;;15.48;71.24;101934.91;5075279;28;20191;-65
2021/06/14 03:33:19;;;;;;;12.02;4.25;;;14.80;99.90;;;15.49;71.23;101936.59;5075649;28;20191;-66
2021/06/14 03:35:49;;;;;;;13.48;4.35;;;14.90;99.90;;;15.50;71.35;101940.13;5077630;28;20310;-65
2021/06/14 03:38:17;;;;;;;14.82;3.85;;;14.90;99.90;;;15.47;71.10;101937.59;5083077;28;20286;-64
2021/06/14 03:40:44;;;;;;;14.40;4.82;;;14.90;99.90;;;15.50;71.25;101940.13;5096549;28;20191;-65
2021/06/14 03:43:11;;;;;;;11.15;4.38;;;14.90;99.90;;;15.52;71.43;101940.94;5093490;28;20191;-65
2021/06/14 03:45:38;;;;;;;11.65;4.20;;;14.90;99.90;;;15.52;71.26;101933.00;5093357;28;20203;-66
2021/06/14 03:48:06;;;;;;;14.77;4.93;;;14.90;99.90;;;15.55;71.36;101935.53;5078738;28;20195;-66
2021/06/14 03:50:33;;;;;;;11.70;4.32;;;14.90;99.90;;;15.57;71.32;101946.88;5097438;28;20271;-64
2021/06/14 03:53:02;;;;;;;11.68;3.90;;;14.90;99.90;;;15.59;71.21;101934.50;5095011;28;20254;-63
2021/06/14 03:55:30;;;;;;;13.10;4.53;;;15.00;99.90;;;15.60;71.18;101939.72;5093341;28;20187;-65
2021/06/14 03:57:57;;;;;;;12.43;4.30;;;15.00;99.90;;;15.60;71.34;101939.72;5093342;28;20182;-65
2021/06/14 04:00:26;;;;;;;11.57;3.67;;;15.00;99.90;;;15.62;71.18;101939.66;5093203;28;20193;-65
2021/06/14 04:02:53;;;;;;;11.48;3.97;;;15.00;99.90;;;15.63;71.17;101949.28;5093173;28;20184;-64
2021/06/14 04:05:29;;;;;;;15.93;4.25;;;15.10;99.90;;;15.64;71.13;101957.13;5091811;28;20713;-64
2021/06/14 04:08:13;;;;;;;11.30;4.05;;;15.10;99.90;;;15.64;71.20;101946.56;5096067;28;20182;-64
2021/06/14 04:10:41;;;;;;;12.85;4.03;;;15.10;99.90;;;15.67;71.29;101940.34;5106744;28;20285;-63
2021/06/14 04:13:08;;;;;;;13.52;3.92;;;15.10;99.90;;;15.69;71.19;101939.34;5095086;28;20187;-65
2021/06/14 04:15:36;;;;;;;13.02;4.70;;;15.20;99.90;;;15.72;71.12;101941.88;5094895;28;20307;-66
2021/06/14 04:18:04;;;;;;;12.20;3.97;;;15.20;99.90;;;15.73;71.14;101937.44;5113230;28;20195;-65
2021/06/14 04:20:31;;;;;;;12.55;4.03;;;15.20;99.90;;;15.77;71.00;101931.16;5094812;28;20194;-65
2021/06/14 04:22:58;;;;;;;15.00;4.15;;;15.20;99.90;;;15.80;70.96;101933.66;5094678;28;20273;-65
2021/06/14 04:25:26;;;;;;;14.60;4.05;;;15.30;99.90;;;15.83;70.75;101931.75;5113039;28;20217;-65
2021/06/14 04:27:54;;;;;;;12.15;4.35;;;15.30;99.90;;;15.86;70.93;101936.03;5113218;28;20635;-64
2021/06/14 04:30:21;;;;;;;12.63;4.45;;;15.40;99.90;;;15.88;70.81;101931.56;5112719;28;20190;-65
2021/06/14 04:32:48;;;;;;;13.98;4.07;;;15.40;99.90;;;15.89;70.80;101936.78;5094629;28;20191;-65
2021/06/14 04:35:15;;;;;;;11.98;4.57;;;15.40;99.90;;;15.93;70.59;101927.84;5113560;28;20201;-67
2021/06/14 04:37:42;;;;;;;11.98;4.20;;;15.50;99.90;;;15.98;70.29;101922.34;5110013;28;20199;-65
2021/06/14 04:40:10;;;;;;;13.07;4.72;;;15.50;99.90;;;16.03;70.44;101925.66;5093242;28;20188;-64
2021/06/14 04:42:37;;;;;;;13.23;4.15;;;15.60;99.90;;;16.08;70.33;101921.06;5092349;28;20708;-65
2021/06/14 04:45:07;;;;;;;12.73;4.15;;;15.60;99.90;;;16.13;70.33;101919.09;5092300;28;20203;-65
2021/06/14 04:47:34;;;;;;;12.57;4.18;;;15.70;99.90;;;16.16;70.25;101917.19;5091053;28;20208;-65
2021/06/14 04:50:01;;;;;;;11.55;4.50;;;15.70;99.90;;;16.22;69.92;101924.88;5092111;28;20195;-66
2021/06/14 04:52:29;;;;;;;15.60;4.15;;;15.80;99.90;;;16.27;69.88;101922.91;5091837;28;20565;-66
2021/06/14 04:54:56;;;;;;;11.52;4.38;;;15.80;99.90;;;16.32;69.62;101922.72;5074103;28;20235;-65
2021/06/14 04:57:23;;;;;;;12.52;4.60;;;15.90;99.90;;;16.38;69.48;101914.50;5074013;28;20218;-65
2021/06/14 04:59:50;;;;;;;13.07;4.60;;;15.90;99.90;;;16.40;69.14;101923.25;5073929;28;20190;-65
2021/06/14 05:02:18;;;;;;;13.88;5.10;;;16.00;99.90;;;16.45;69.38;101931.84;5073532;28;20294;-65
2021/06/14 05:04:44;;;;;;;14.35;4.43;;;16.00;99.90;;;16.48;69.21;101930.91;5090580;28;20676;-65
2021/06/14 05:07:11;;;;;;;12.95;4.47;;;16.10;99.90;;;16.52;69.09;101932.47;5074589;28;20211;-64
2021/06/14 05:09:38;;;;;;;12.63;4.85;;;16.10;99.90;;;16.55;69.00;101933.19;5097287;28;20191;-65
2021/06/14 05:12:06;;;;;;;13.20;4.88;;;16.20;99.90;;;16.61;69.05;101938.22;5091743;28;20194;-65
2021/06/14 05:14:33;;;;;;;14.73;5.28;;;16.20;99.90;;;16.68;68.62;101939.66;5092021;28;20190;-66
2021/06/14 05:17:00;;;;;;;15.85;4.63;;;16.30;99.90;;;16.74;68.50;101934.13;5091942;28;20218;-67
2021/06/14 05:19:28;;;;;;;18.20;4.93;;;16.30;99.90;;;16.78;68.24;101927.78;5092053;28;20188;-64
2021/06/14 05:21:55;;;;;;;13.82;4.38;;;16.40;99.90;;;16.82;68.00;101932.00;5091647;28;20233;-63
2021/06/14 05:24:22;;;;;;;16.52;5.43;;;16.40;99.90;;;16.86;68.15;101930.94;5073368;28;20183;-65
2021/06/14 05:26:49;;;;;;;11.30;4.60;;;16.50;99.90;;;16.91;67.84;101926.31;5073321;28;20226;-64
2021/06/14 05:29:15;;;;;;;16.25;6.03;;;16.60;99.90;;;16.97;67.71;101935.75;5091838;28;20191;-65
2021/06/14 05:31:42;;;;;;;16.92;5.20;;;16.60;99.90;;;17.01;67.63;101932.91;5091571;28;20300;-68
2021/06/14 05:34:09;;;;;;;11.48;4.30;;;16.60;99.90;;;17.06;67.15;101935.38;5073720;28;20187;-65
2021/06/14 05:36:37;;;;;;;15.73;4.28;;;16.70;99.90;;;17.12;66.99;101935.09;5091723;28;20230;-65
2021/06/14 05:39:04;;;;;;;12.40;4.30;;;16.80;99.90;;;17.16;67.11;101932.22;5105262;28;20190;-64
2021/06/14 05:41:31;;;;;;;13.82;5.15;;;16.80;99.90;;;17.19;66.75;101932.09;5091288;28;20191;-66
2021/06/14 05:43:58;;;;;;;13.00;4.60;;;16.90;99.90;;;17.25;66.66;101939.75;5073580;28;20199;-65
2021/06/14 05:46:25;;;;;;;12.80;4.35;;;17.00;99.90;;;17.34;66.47;101943.78;5091964;28;20223;-65
2021/06/14 05:48:52;;;;;;;16.48;5.95;;;17.10;99.90;;;17.43;66.02;101946.84;5073677;28;20233;-65
2021/06/14 05:51:19;;;;;;;13.07;4.32;;;17.20;99.90;;;17.52;65.87;101946.47;5091385;28;20184;-63
2021/06/14 05:53:48;;;;;;;17.63;4.68;;;17.30;99.90;;;17.59;65.36;101941.75;5091619;28;20187;-65
2021/06/14 05:56:16;;;;;;;12.45;4.22;;;17.50;99.90;;;17.67;65.07;101949.31;5073302;28;20211;-65
2021/06/14 05:58:44;;;;;;;12.13;4.43;;;17.60;99.90;;;17.74;64.73;101950.75;5091528;28;20184;-64
2021/06/14 06:01:10;;;;;;;12.15;4.30;;;17.60;99.90;;;17.81;64.19;101952.19;5091201;28;20191;-64
2021/06/14 06:03:37;;;;;;;23.73;4.28;;;17.70;99.90;;;17.85;63.93;101949.31;5091588;28;20660;-65
2021/06/14 06:06:04;;;;;;;15.77;3.88;;;17.80;99.90;;;17.88;64.14;101950.97;5091123;28;20604;-64
2021/06/14 06:08:31;;;;;;;14.07;4.32;;;17.80;99.90;;;17.95;63.99;101958.53;5091294;28;20188;-65
2021/06/14 06:10:59;;;;;;;14.88;4.28;;;17.80;99.90;;;18.02;63.49;101957.31;5091192;28;20184;-64
2021/06/14 06:13:26;;;;;;;11.68;3.97;;;17.90;99.90;;;18.04;63.28;101950.16;5091216;28;20192;-65
2021/06/14 06:15:53;;;;;;;13.23;4.10;;;17.90;99.90;;;18.06;63.32;101953.59;5090598;28;20241;-63
2021/06/14 06:18:20;;;;;;;14.68;3.88;;;17.90;99.90;;;18.10;62.82;101957.78;5091116;28;20195;-65
2021/06/14 06:20:47;;;;;;;10.65;3.35;;;18.00;99.90;;;18.14;62.83;101955.84;5090988;28;20180;-64
2021/06/14 06:23:13;;;;;;;12.13;3.53;;;18.00;99.90;;;18.21;62.64;101951.97;5091318;28;20187;-65
2021/06/14 06:25:40;;;;;;;11.38;3.72;;;18.10;99.90;;;18.24;62.37;101950.03;5091022;28;20658;-65
2021/06/14 06:28:08;;;;;;;12.48;3.67;;;18.10;99.90;;;18.31;62.43;101953.25;5091019;28;20563;-64
2021/06/14 06:30:37;;;;;;;10.98;3.83;;;18.20;99.90;;;18.37;62.21;101947.66;5072501;28;20219;-65
2021/06/14 06:33:05;;;;;;;12.52;3.75;;;18.30;99.90;;;18.45;61.82;101937.56;5091303;28;20612;-64
2021/06/14 06:35:32;;;;;;;12.32;4.38;;;18.40;99.90;;;18.49;61.89;101941.75;5091986;28;20539;-65
2021/06/14 06:37:59;;;;;;;12.25;4.00;;;18.40;99.90;;;18.48;61.84;101940.91;5094916;28;20216;-65
2021/06/14 06:40:26;;;;;;;12.98;3.47;;;18.40;99.90;;;18.51;61.78;101939.88;5093169;28;20202;-65
2021/06/14 06:42:54;;;;;;;11.95;4.00;;;18.50;99.90;;;18.54;61.85;101929.09;5094462;28;20188;-65
2021/06/14 06:45:22;;;;;;;15.40;3.83;;;18.60;99.90;;;18.60;61.59;101928.81;5082211;28;20265;-63
2021/06/14 06:47:49;;;;;;;10.52;3.13;;;18.70;99.90;;;18.66;61.62;101928.50;5097468;28;20211;-64
2021/06/14 06:50:16;;;;;;;10.38;3.38;;;18.70;99.90;;;18.74;61.51;101937.78;5092775;28;20194;-65
2021/06/14 06:52:43;;;;;;;11.45;3.92;;;18.80;99.90;;;18.83;61.18;101925.84;5075974;28;20199;-65
2021/06/14 06:55:13;;;;;;;12.10;3.33;;;18.90;99.90;;;18.92;60.79;101927.16;5094819;28;20187;-65
2021/06/14 06:57:41;;;;;;;12.05;3.30;;;19.00;99.90;;;19.00;60.71;101928.47;5096862;28;20210;-65
2021/06/14 07:00:12;;;;;;;15.15;3.97;;;19.10;99.90;;;19.07;60.58;101919.25;5094899;28;20192;-65
2021/06/14 07:02:40;;;;;;;10.85;4.50;;;19.20;99.90;;;19.16;60.56;101921.38;5080568;28;20196;-65
2021/06/14 07:05:09;;;;;;;15.10;3.85;;;19.30;99.90;;;19.24;60.25;101915.69;5097917;28;20274;-63
2021/06/14 07:07:36;;;;;;;11.50;3.50;;;19.40;99.90;;;19.32;59.86;101922.34;5097714;28;20207;-64
2021/06/14 07:10:05;;;;;;;11.20;3.20;;;19.60;99.90;;;19.47;59.65;101917.97;5095088;28;20194;-65
2021/06/14 07:12:33;;;;;;;10.48;3.25;;;19.80;99.90;;;19.56;59.31;101902.38;5092984;28;20191;-64
2021/06/14 07:15:00;;;;;;;12.18;3.13;;;20.20;99.90;;;19.67;59.07;101900.00;5094037;28;20203;-64
2021/06/14 07:17:27;;;;;;;10.93;2.95;;;20.70;99.90;;;19.83;58.87;101908.81;5097454;28;20730;-65
2021/06/14 07:19:55;;;;;;;8.77;3.00;;;21.30;99.90;;;19.92;58.51;101905.63;5075700;28;20183;-65
2021/06/14 07:22:22;;;;;;;10.40;3.10;;;21.60;99.90;;;20.01;58.65;101903.38;5093696;28;20184;-65
2021/06/14 07:24:50;;;;;;;10.75;3.03;;;21.80;99.90;;;20.07;58.28;101898.56;5094192;28;20184;-64
2021/06/14 07:27:16;;;;;;;11.60;3.08;;;22.00;99.90;;;20.04;58.10;101893.44;5093865;28;20601;-65
2021/06/14 07:29:44;;;;;;;11.88;3.63;;;21.90;99.90;;;20.03;57.89;101893.53;5093957;28;20191;-64
2021/06/14 07:32:11;;;;;;;9.35;3.13;;;21.70;99.90;;;20.08;58.02;101902.09;5093575;28;20191;-64
2021/06/14 07:34:37;;;;;;;9.68;3.30;;;21.50;99.90;;;20.20;57.88;101906.72;5092309;28;20187;-65
2021/06/14 07:37:05;;;;;;;13.05;3.40;;;21.40;99.90;;;20.30;57.40;101908.75;5093746;28;20718;-65
2021/06/14 07:39:32;;;;;;;10.55;3.17;;;21.30;99.90;;;20.36;56.90;101908.38;5093739;28;20187;-66
2021/06/14 07:41:59;;;;;;;10.10;2.80;;;21.10;99.90;;;20.41;56.70;101910.78;5092056;28;20563;-65
2021/06/14 07:44:26;;;;;;;8.75;2.97;;;21.10;99.90;;;20.50;56.61;101907.56;5093690;28;20195;-65
2021/06/14 07:46:53;;;;;;;10.48;3.08;;;21.20;99.90;;;20.60;56.26;101901.63;5096155;28;20215;-64
2021/06/14 07:49:20;;;;;;;11.00;3.17;;;21.20;99.90;;;20.64;55.86;101902.28;5094337;28;20187;-65
2021/06/14 07:51:47;;;;;;;11.23;2.53;;;21.20;99.90;;;20.70;55.31;101899.25;5097380;28;20656;-65
2021/06/14 07:54:15;;;;;;;9.93;2.70;;;21.20;99.90;;;20.71;55.33;101885.88;5093227;28;20543;-65
2021/06/14 07:56:45;;;;;;;10.93;3.38;;;21.30;99.90;;;20.71;54.91;101890.34;5075193;28;20222;-64
2021/06/14 07:59:12;;;;;;;10.05;3.03;;;21.30;99.90;;;20.77;54.74;101890.81;5074778;28;20294;-65
2021/06/14 08:01:39;;;;;;;11.27;2.92;;;21.40;99.90;;;20.88;54.39;101888.34;5093232;28;20179;-63
2021/06/14 08:04:06;;;;;;;10.27;3.42;;;21.50;99.90;;;20.96;54.36;101890.53;5093090;28;20183;-65
2021/06/14 08:06:33;;;;;;;9.88;2.78;;;21.50;99.90;;;21.04;54.40;101882.97;5093804;28;20244;-64
2021/06/14 08:09:01;;;;;;;10.52;2.90;;;21.60;99.90;;;21.07;53.80;101880.97;5092341;28;20192;-64
2021/06/14 08:11:30;;;;;;;12.90;3.65;;;21.60;99.90;;;21.14;53.51;101876.13;5092804;28;20180;-64
2021/06/14 08:13:58;;;;;;;11.50;3.50;;;21.70;99.90;;;21.20;53.28;101878.38;5092845;28;20190;-62
2021/06/14 08:16:25;;;;;;;10.48;3.00;;;21.80;99.90;;;21.30;53.16;101879.50;5092857;28;20306;-64
2021/06/14 08:19:02;;;;;;;10.90;3.22;;;21.90;99.90;;;21.40;53.35;101875.31;5074952;28;20191;-65
2021/06/14 08:21:40;;;;;;;10.30;3.25;;;22.10;99.90;;;21.51;52.77;101877.31;5098399;28;20198;-65
2021/06/14 08:26:54;;;;;;;9.32;2.72;;;22.30;99.90;;;21.63;52.82;101873.84;5093235;28;20246;-64
2021/06/14 08:29:21;;;;;;;11.07;3.38;;;22.40;99.90;;;21.69;52.81;101871.63;5092964;28;20194;-65
2021/06/14 08:31:48;;;;;;;8.38;2.47;;;22.40;99.90;;;21.75;52.29;101873.06;5092926;28;20549;-64
2021/06/14 08:34:17;;;;;;;9.73;3.78;;;22.50;99.90;;;21.80;51.73;101879.81;5093021;28;20199;-64
2021/06/14 08:36:44;;;;;;;8.50;2.70;;;22.50;99.90;;;21.88;51.71;101871.31;5092743;28;20290;-65
2021/06/14 08:39:11;;;;;;;9.23;3.40;;;22.60;99.90;;;21.95;51.78;101867.31;5074897;28;20193;-63
2021/06/14 08:41:44;;;;;;;8.70;3.33;;;22.60;99.90;;;21.99;51.89;101859.00;5093319;28;20187;-64
2021/06/14 08:44:13;;;;;;;9.27;3.17;;;22.70;99.90;;;22.03;51.63;101864.97;5074656;28;20183;-64
2021/06/14 08:46:40;;;;;;;10.35;3.20;;;22.70;99.80;;;22.08;51.48;101855.72;5093402;28;20203;-65
2021/06/14 08:49:08;;;;;;;8.25;2.65;;;22.80;99.70;;;22.15;51.08;101854.31;5092534;28;20180;-64
2021/06/14 08:51:35;;;;;;;10.50;2.80;;;22.80;98.80;;;22.12;50.71;101849.22;5085502;28;20204;-65
2021/06/14 08:54:05;;;;;;;8.73;2.92;;;22.80;98.50;;;22.18;50.54;101840.81;5100603;28;20278;-65
2021/06/14 08:56:32;;;;;;;10.27;2.80;;;22.80;98.30;;;22.25;50.21;101834.06;5094829;28;20215;-63
2021/06/14 08:58:59;;;;;;;11.20;2.92;;;22.90;98.20;;;22.34;50.17;101833.47;5087584;28;20191;-65
2021/06/14 09:01:27;;;;;;;9.85;2.83;;;23.00;98.10;;;22.37;50.02;101835.91;5091884;28;20190;-64
2021/06/14 09:03:54;;;;;;;8.73;2.83;;;23.00;98.10;;;22.39;50.28;101831.31;5092127;28;20194;-65
2021/06/14 09:06:21;;;;;;;8.85;2.65;;;23.10;98.00;;;22.46;50.18;101831.75;5091883;28;20254;-65
2021/06/14 09:09:01;;;;;;;10.15;2.67;;;23.10;97.70;;;22.54;49.71;101824.09;5092047;28;20271;-64
2021/06/14 09:11:31;;;;;;;10.02;2.42;;;23.20;97.30;;;22.62;49.21;101826.25;5091726;28;20198;-64
2021/06/14 09:14:00;;;;;;;10.40;3.05;;;23.30;97.20;;;22.70;49.09;101822.09;5092119;28;20188;-66
2021/06/14 09:16:32;;;;;;;9.07;2.90;;;23.40;96.80;;;22.72;48.85;101824.66;5091807;28;20776;-64
2021/06/14 09:18:59;;;;;;;10.27;2.92;;;23.40;96.60;;;22.69;49.09;101811.53;5090840;28;20328;-65
2021/06/14 09:21:30;;;;;;;8.13;2.60;;;23.40;96.40;;;22.72;49.02;101816.63;5091682;28;20578;-65
2021/06/14 09:23:59;;;;;;;9.02;3.13;;;23.40;96.30;;;22.77;48.48;101814.50;5074136;28;20214;-65
2021/06/14 09:26:30;;;;;;;9.27;2.88;;;23.40;96.10;;;22.83;48.32;101803.38;5083211;28;20688;-64
2021/06/14 09:29:02;;;;;;;11.82;3.22;;;23.50;95.80;;;22.86;47.93;101805.81;5102039;28;20182;-65
2021/06/14 09:31:41;;;;;;;8.65;2.90;;;23.50;95.40;;;22.90;47.73;101792.16;5112296;28;20216;-63
2021/06/14 09:34:10;;;;;;;11.82;2.83;;;23.60;95.20;;;22.95;47.45;101791.81;5093988;28;20187;-64
2021/06/14 09:36:37;;;;;;;15.90;4.25;;;23.60;94.90;;;23.01;47.49;101794.91;5112191;28;20198;-65
2021/06/14 09:39:14;;;;;;;14.48;4.85;;;23.70;94.40;;;23.04;47.41;101785.81;5112255;28;20659;-64
2021/06/14 09:41:44;;;;;;;12.20;3.83;;;23.60;94.50;;;23.10;47.25;101790.72;5111865;28;20187;-64
2021/06/14 09:44:12;;;;;;;11.68;3.28;;;23.70;94.40;;;23.13;46.80;101782.47;5112052;28;20187;-64
2021/06/14 09:46:40;;;;;;;13.57;2.90;;;23.80;94.30;;;23.14;46.85;101776.19;5111802;28;20241;-66
2021/06/14 09:49:18;;;;;;;10.80;2.70;;;23.80;94.00;;;23.14;46.73;101770.84;5093674;28;20651;-64
2021/06/14 09:51:51;;;;;;;10.13;2.50;;;23.80;93.60;;;23.17;46.78;101770.59;5110533;28;20227;-66
2021/06/14 09:54:26;;;;;;;8.35;2.40;;;23.70;93.80;;;23.17;46.59;101776.81;5093744;28;20191;-65
2021/06/14 09:56:55;;;;;;;12.50;2.83;;;23.70;93.50;;;23.14;46.47;101766.31;5108627;28;20242;-64
2021/06/14 09:59:26;;;;;;;8.27;2.25;;;23.70;93.60;;;23.16;46.86;101760.91;5091589;28;20225;-64
2021/06/14 10:02:05;;;;;;;7.88;2.25;;;23.70;93.50;;;23.23;46.51;101760.31;5091297;28;20196;-65
2021/06/14 10:04:32;;;;;;;8.73;2.35;;;23.80;93.20;;;23.27;46.34;101756.50;5073594;28;20187;-64
2021/06/14 10:07:11;;;;;;;9.80;3.05;;;23.80;92.90;;;23.29;46.00;101753.72;5091332;28;20243;-65
2021/06/14 10:09:44;;;;;;;9.60;3.00;;;23.80;93.10;;;23.33;46.58;101744.47;5092659;28;20195;-64
2021/06/14 10:12:20;;;;;;;10.05;2.45;;;23.90;93.30;;;23.42;46.76;101749.16;5077598;28;20226;-64
2021/06/14 10:14:52;;;;;;;9.70;2.63;;;24.00;93.20;;;23.51;46.59;101743.13;5095292;28;20194;-65
2021/06/14 10:17:33;;;;;;;7.43;2.38;;;24.00;93.10;;;23.62;46.33;101742.31;5093802;28;20212;-65
2021/06/14 10:20:16;;;;;;;9.02;2.88;;;24.10;92.70;;;23.68;46.05;101728.50;5077337;28;20560;-65